createdAt,value
2019-05-19T00:00:16.179Z,85.13
2019-05-19T00:01:20.402Z,85.40
2019-05-19T00:02:27.220Z,85.58
2019-05-19T00:03:33.117Z,85.56
2019-05-19T00:04:36.425Z,85.58
2019-05-19T00:05:39.791Z,85.58
2019-05-19T00:06:42.799Z,85.79
2019-05-19T00:07:46.939Z,86.03
2019-05-19T00:08:49.793Z,86.03
2019-05-19T00:09:53.738Z,86.07
2019-05-19T00:11:00.877Z,85.90
2019-05-19T00:12:04.419Z,85.97
2019-05-19T00:13:07.740Z,85.74
2019-05-19T00:14:12.961Z,85.71
2019-05-19T00:15:17.826Z,85.36
2019-05-19T00:16:21.488Z,84.96
2019-05-19T00:17:24.344Z,84.80
2019-05-19T00:18:27.777Z,84.80
2019-05-19T00:19:30.603Z,84.95
2019-05-19T00:20:36.767Z,84.95
2019-05-19T00:21:39.615Z,84.83
2019-05-19T00:22:43.393Z,84.64
2019-05-19T00:23:49.384Z,85.29
2019-05-19T00:24:52.739Z,85.23
2019-05-19T00:25:55.681Z,85.67
2019-05-19T00:26:59.119Z,86.18
2019-05-19T00:28:01.947Z,86.06
2019-05-19T00:29:05.878Z,86.14
2019-05-19T00:30:11.154Z,86.14
2019-05-19T00:31:14.524Z,86.89
2019-05-19T00:32:17.396Z,87.23
2019-05-19T00:33:20.847Z,87.25
2019-05-19T00:34:23.668Z,86.42
2019-05-19T00:35:28.542Z,86.31
2019-05-19T00:36:32.741Z,86.05
2019-05-19T00:37:36.200Z,86.13
2019-05-19T00:38:39.061Z,86.79
2019-05-19T00:39:42.424Z,86.75
2019-05-19T00:40:45.722Z,86.97
2019-05-19T00:41:49.654Z,86.51
2019-05-19T00:42:52.452Z,86.12
2019-05-19T00:43:58.630Z,86.12
2019-05-19T00:45:01.438Z,85.38
2019-05-19T00:46:05.301Z,85.02
2019-05-19T00:47:08.247Z,85.18
2019-05-19T00:48:11.991Z,85.22
2019-05-19T00:49:14.877Z,84.96
2019-05-19T00:50:18.275Z,86.89
2019-05-19T00:51:21.054Z,88.67
2019-05-19T00:52:24.444Z,88.84
2019-05-19T00:53:27.293Z,89.34
2019-05-19T00:54:32.594Z,89.84
2019-05-19T00:55:35.413Z,91.09
2019-05-19T00:56:38.757Z,92.27
2019-05-19T00:57:41.593Z,92.27
2019-05-19T00:58:46.060Z,91.47
2019-05-19T00:59:48.855Z,91.31
2019-05-19T01:00:53.080Z,90.58
2019-05-19T01:01:55.876Z,90.58
2019-05-19T01:02:59.231Z,90.01
2019-05-19T01:04:02.077Z,89.15
2019-05-19T01:05:05.878Z,88.96
2019-05-19T01:06:08.795Z,87.83
2019-05-19T01:07:12.711Z,87.52
2019-05-19T01:08:15.576Z,87.20
2019-05-19T01:09:18.991Z,87.83
2019-05-19T01:10:21.844Z,87.35
2019-05-19T01:11:25.196Z,87.03
2019-05-19T01:12:28.017Z,87.29
2019-05-19T01:13:31.897Z,87.43
2019-05-19T01:14:34.719Z,87.43
2019-05-19T01:15:38.158Z,87.67
2019-05-19T01:16:41.403Z,87.71
2019-05-19T01:17:44.750Z,87.71
2019-05-19T01:18:48.664Z,87.30
2019-05-19T01:19:56.141Z,87.26
2019-05-19T01:20:57.078Z,87.35
2019-05-19T01:22:00.802Z,88.02
2019-05-19T01:23:03.623Z,88.11
2019-05-19T01:24:07.082Z,88.50
2019-05-19T01:25:09.895Z,88.31
2019-05-19T01:26:15.096Z,88.29
2019-05-19T01:27:18.330Z,87.87
2019-05-19T01:28:21.733Z,87.87
2019-05-19T01:29:24.641Z,88.04
2019-05-19T01:30:29.359Z,87.74
2019-05-19T01:31:32.246Z,87.74
2019-05-19T01:32:36.070Z,87.81
2019-05-19T01:33:38.895Z,87.81
2019-05-19T01:34:42.314Z,87.88
2019-05-19T01:35:45.117Z,88.06
2019-05-19T01:36:48.548Z,88.06
2019-05-19T01:37:54.439Z,88.06
2019-05-19T01:38:58.160Z,87.95
2019-05-19T01:40:07.059Z,87.87
2019-05-19T01:41:10.423Z,87.16
2019-05-19T01:42:16.049Z,87.16
2019-05-19T01:43:19.401Z,87.85
2019-05-19T01:44:22.219Z,88.36
2019-05-19T01:45:25.603Z,88.36
2019-05-19T01:46:28.914Z,88.91
2019-05-19T01:47:32.303Z,89.38
2019-05-19T01:48:36.465Z,89.44
2019-05-19T01:49:40.253Z,89.91
2019-05-19T01:51:32.415Z,89.59
2019-05-19T01:51:50.058Z,89.55
2019-05-19T01:52:54.794Z,89.54
2019-05-19T01:53:58.142Z,89.54
2019-05-19T01:55:01.498Z,88.64
2019-05-19T01:56:04.934Z,88.64
2019-05-19T01:57:07.766Z,88.15
2019-05-19T01:58:11.680Z,88.15
2019-05-19T01:59:14.520Z,87.68
2019-05-19T02:00:17.987Z,87.11
2019-05-19T02:01:21.166Z,87.31
2019-05-19T02:02:25.035Z,87.24
2019-05-19T02:03:29.810Z,87.07
2019-05-19T02:04:33.345Z,87.00
2019-05-19T02:05:39.025Z,87.82
2019-05-19T02:06:42.424Z,87.96
2019-05-19T02:07:45.247Z,88.39
2019-05-19T02:08:51.111Z,88.66
2019-05-19T02:09:54.495Z,89.42
2019-05-19T02:10:58.410Z,89.98
2019-05-19T02:12:04.246Z,90.11
2019-05-19T02:13:14.185Z,90.37
2019-05-19T02:14:17.421Z,90.60
2019-05-19T02:15:23.583Z,90.14
2019-05-19T02:16:27.827Z,89.56
2019-05-19T02:17:31.551Z,90.27
2019-05-19T02:18:34.453Z,89.09
2019-05-19T02:19:38.846Z,88.88
2019-05-19T02:20:41.747Z,88.87
2019-05-19T02:22:08.100Z,88.99
2019-05-19T02:23:11.436Z,88.99
2019-05-19T02:24:15.219Z,89.72
2019-05-19T02:25:18.085Z,89.69
2019-05-19T02:26:21.434Z,89.93
2019-05-19T02:27:24.260Z,89.32
2019-05-19T02:28:27.682Z,89.77
2019-05-19T02:29:33.537Z,90.01
2019-05-19T02:30:38.374Z,90.58
2019-05-19T02:31:41.988Z,90.15
2019-05-19T02:32:45.438Z,90.15
2019-05-19T02:33:48.272Z,89.17
2019-05-19T02:34:51.879Z,88.87
2019-05-19T02:35:54.873Z,89.08
2019-05-19T02:36:58.737Z,89.11
2019-05-19T02:38:01.544Z,89.18
2019-05-19T02:39:06.709Z,88.90
2019-05-19T02:40:09.559Z,88.82
2019-05-19T02:41:13.013Z,88.64
2019-05-19T02:42:16.264Z,88.47
2019-05-19T02:43:19.717Z,88.33
2019-05-19T02:44:23.828Z,87.92
2019-05-19T02:45:27.272Z,87.80
2019-05-19T02:46:32.942Z,88.31
2019-05-19T02:47:36.354Z,88.29
2019-05-19T02:48:39.657Z,88.39
2019-05-19T02:49:43.049Z,88.39
2019-05-19T02:50:52.186Z,88.17
2019-05-19T02:51:51.234Z,87.54
2019-05-19T02:52:54.090Z,87.70
2019-05-19T02:53:57.529Z,88.17
2019-05-19T02:55:00.932Z,87.97
2019-05-19T02:56:04.502Z,87.97
2019-05-19T02:57:07.337Z,87.99
2019-05-19T02:58:10.789Z,88.03
2019-05-19T02:59:13.627Z,87.86
2019-05-19T03:00:17.034Z,87.56
2019-05-19T03:01:20.325Z,88.57
2019-05-19T03:02:23.968Z,88.82
2019-05-19T03:03:26.861Z,88.92
2019-05-19T03:04:30.339Z,89.32
2019-05-19T03:05:33.272Z,89.67
2019-05-19T03:06:36.744Z,89.67
2019-05-19T03:07:39.983Z,89.46
2019-05-19T03:08:43.671Z,89.52
2019-05-19T03:09:46.600Z,89.50
2019-05-19T03:10:50.067Z,89.50
2019-05-19T03:11:53.171Z,89.13
2019-05-19T03:12:58.830Z,89.20
2019-05-19T03:14:02.916Z,89.61
2019-05-19T03:15:06.419Z,89.61
2019-05-19T03:16:09.389Z,89.27
2019-05-19T03:17:12.841Z,89.10
2019-05-19T03:18:16.272Z,89.28
2019-05-19T03:19:21.760Z,89.56
2019-05-19T03:20:25.086Z,89.41
2019-05-19T03:21:28.546Z,89.41
2019-05-19T03:22:34.605Z,89.04
2019-05-19T03:23:41.195Z,89.04
2019-05-19T03:24:44.071Z,89.14
2019-05-19T03:25:47.460Z,89.63
2019-05-19T03:26:50.338Z,89.54
2019-05-19T03:27:54.146Z,89.28
2019-05-19T03:28:58.322Z,88.98
2019-05-19T03:30:20.461Z,89.18
2019-05-19T03:31:45.617Z,89.42
2019-05-19T03:32:53.189Z,89.11
2019-05-19T03:33:59.143Z,89.31
2019-05-19T03:35:02.098Z,89.31
2019-05-19T03:36:07.584Z,89.54
2019-05-19T03:38:48.481Z,89.30
2019-05-19T03:39:51.988Z,89.26
2019-05-19T03:40:54.886Z,89.04
2019-05-19T03:41:58.348Z,89.04
2019-05-19T03:43:01.203Z,89.23
2019-05-19T03:44:04.636Z,88.98
2019-05-19T03:45:07.803Z,88.62
2019-05-19T03:46:11.395Z,88.62
2019-05-19T03:47:14.264Z,89.02
2019-05-19T03:48:17.830Z,89.13
2019-05-19T03:49:20.669Z,89.46
2019-05-19T03:50:24.538Z,89.46
2019-05-19T03:51:31.358Z,89.69
2019-05-19T03:52:32.912Z,89.33
2019-05-19T03:53:35.821Z,89.19
2019-05-19T03:54:39.263Z,89.18
2019-05-19T03:55:42.070Z,88.73
2019-05-19T03:56:45.538Z,88.64
2019-05-19T03:57:50.600Z,87.67
2019-05-19T03:58:55.189Z,87.77
2019-05-19T03:59:58.120Z,88.04
2019-05-19T04:01:01.497Z,88.03
2019-05-19T04:02:04.342Z,87.99
2019-05-19T04:03:07.774Z,88.29
2019-05-19T04:04:11.003Z,88.17
2019-05-19T04:05:14.369Z,88.33
2019-05-19T04:06:17.173Z,88.38
2019-05-19T04:07:20.662Z,88.10
2019-05-19T04:08:23.692Z,88.29
2019-05-19T04:09:27.179Z,88.04
2019-05-19T04:10:30.580Z,88.16
2019-05-19T04:11:34.210Z,88.39
2019-05-19T04:12:43.282Z,88.79
2019-05-19T04:13:42.683Z,88.79
2019-05-19T04:14:45.649Z,89.01
2019-05-19T04:16:19.349Z,89.19
2019-05-19T04:16:53.980Z,88.96
2019-05-19T04:17:57.414Z,88.65
2019-05-19T04:19:00.218Z,88.65
2019-05-19T04:20:03.646Z,88.46
2019-05-19T04:21:06.468Z,88.38
2019-05-19T04:22:09.825Z,88.27
2019-05-19T04:23:13.113Z,87.56
2019-05-19T04:24:16.725Z,87.55
2019-05-19T04:25:19.612Z,87.49
2019-05-19T04:26:22.989Z,87.90
2019-05-19T04:27:25.825Z,87.84
2019-05-19T04:28:29.168Z,87.78
2019-05-19T04:29:32.544Z,88.16
2019-05-19T04:30:36.006Z,88.26
2019-05-19T04:31:38.967Z,87.90
2019-05-19T04:32:42.352Z,87.86
2019-05-19T04:33:45.258Z,87.71
2019-05-19T04:34:50.847Z,87.22
2019-05-19T04:35:57.557Z,86.84
2019-05-19T04:36:59.040Z,86.76
2019-05-19T04:38:02.447Z,86.81
2019-05-19T04:39:07.506Z,86.46
2019-05-19T04:40:10.409Z,87.15
2019-05-19T04:41:14.103Z,87.15
2019-05-19T04:42:17.431Z,86.87
2019-05-19T04:43:20.888Z,86.69
2019-05-19T04:44:23.710Z,87.24
2019-05-19T04:45:27.084Z,86.25
2019-05-19T04:46:29.940Z,85.94
2019-05-19T04:47:33.368Z,85.88
2019-05-19T04:48:36.246Z,85.88
2019-05-19T04:49:39.733Z,85.65
2019-05-19T04:50:42.951Z,85.54
2019-05-19T04:51:46.351Z,85.24
2019-05-19T04:52:49.199Z,84.88
2019-05-19T04:53:54.882Z,84.98
2019-05-19T04:54:59.951Z,85.53
2019-05-19T04:56:03.356Z,85.53
2019-05-19T04:57:06.572Z,85.36
2019-05-19T04:58:10.033Z,85.26
2019-05-19T04:59:12.937Z,84.92
2019-05-19T05:00:16.718Z,85.24
2019-05-19T05:01:19.633Z,84.71
2019-05-19T05:02:23.058Z,84.71
2019-05-19T05:03:28.296Z,84.85
2019-05-19T05:04:34.276Z,84.25
2019-05-19T05:05:37.094Z,84.41
2019-05-19T05:06:40.899Z,84.44
2019-05-19T05:07:43.702Z,84.61
2019-05-19T05:08:47.134Z,85.05
2019-05-19T05:09:50.316Z,84.62
2019-05-19T05:10:54.284Z,84.46
2019-05-19T05:11:57.105Z,84.57
2019-05-19T05:13:00.900Z,84.60
2019-05-19T05:14:03.821Z,84.40
2019-05-19T05:15:07.174Z,84.03
2019-05-19T05:16:13.043Z,83.08
2019-05-19T05:17:16.423Z,82.79
2019-05-19T05:18:19.250Z,82.93
2019-05-19T05:19:27.859Z,82.86
2019-05-19T05:20:30.796Z,82.42
2019-05-19T05:21:34.276Z,82.42
2019-05-19T05:22:37.383Z,82.07
2019-05-19T05:23:40.806Z,82.20
2019-05-19T05:24:43.649Z,82.23
2019-05-19T05:25:48.199Z,82.19
2019-05-19T05:26:51.007Z,82.57
2019-05-19T05:27:54.381Z,83.28
2019-05-19T05:28:57.238Z,83.31
2019-05-19T05:30:00.644Z,83.15
2019-05-19T05:44:07.899Z,81.15
2019-05-19T05:45:11.399Z,81.22
2019-05-19T05:46:14.199Z,81.22
2019-05-19T05:47:21.463Z,81.82
2019-05-19T05:48:25.310Z,83.08
2019-05-19T05:49:31.906Z,83.93
2019-05-19T05:50:35.779Z,84.03
2019-05-19T05:51:39.280Z,84.49
2019-05-19T05:52:47.021Z,84.49
2019-05-19T05:53:50.400Z,84.36
2019-05-19T05:54:55.658Z,84.36
2019-05-19T05:55:59.424Z,83.51
2019-05-19T05:57:02.324Z,83.30
2019-05-19T05:58:05.685Z,83.01
2019-05-19T05:59:11.984Z,82.74
2019-05-19T06:00:21.354Z,83.13
2019-05-19T06:01:26.947Z,82.61
2019-05-19T06:02:30.394Z,82.61
2019-05-19T06:03:33.216Z,82.69
2019-05-19T06:04:36.568Z,82.69
2019-05-19T06:05:39.529Z,83.31
2019-05-19T06:06:45.784Z,83.50
2019-05-19T06:07:48.350Z,83.49
2019-05-19T06:08:54.158Z,84.11
2019-05-19T06:09:58.357Z,83.65
2019-05-19T06:11:03.431Z,83.63
2019-05-19T06:12:07.667Z,83.17
2019-05-19T06:13:14.064Z,82.98
2019-05-19T06:14:17.318Z,82.68
2019-05-19T06:15:21.933Z,82.97
2019-05-19T06:16:26.061Z,82.74
2019-05-19T06:17:29.528Z,82.74
2019-05-19T06:18:35.342Z,82.87
2019-05-19T06:19:38.792Z,82.29
2019-05-19T06:20:44.993Z,82.14
2019-05-19T06:21:48.414Z,81.82
2019-05-19T06:22:56.996Z,82.02
2019-05-19T06:23:59.831Z,82.39
2019-05-19T06:25:02.723Z,82.13
2019-05-19T06:26:06.354Z,82.54
2019-05-19T06:27:09.607Z,82.71
2019-05-19T06:28:13.468Z,82.98
2019-05-19T06:29:21.722Z,82.75
2019-05-19T06:30:25.168Z,83.39
2019-05-19T06:31:28.209Z,83.42
2019-05-19T06:32:52.079Z,82.64
2019-05-19T06:33:54.949Z,82.64
2019-05-19T06:34:58.597Z,83.23
2019-05-19T06:36:01.539Z,82.71
2019-05-19T06:37:05.104Z,82.41
2019-05-19T06:38:08.554Z,82.02
2019-05-19T06:39:12.524Z,82.02
2019-05-19T06:40:15.908Z,82.56
2019-05-19T06:41:20.663Z,83.26
2019-05-19T06:42:26.648Z,82.96
2019-05-19T06:43:31.178Z,82.17
2019-05-19T06:44:38.781Z,82.17
2019-05-19T06:45:49.948Z,81.29
2019-05-19T06:46:52.806Z,81.16
2019-05-19T06:47:56.363Z,80.05
2019-05-19T06:48:59.596Z,80.05
2019-05-19T06:50:02.992Z,80.47
2019-05-19T06:52:33.397Z,79.82
2019-05-19T06:53:38.514Z,79.82
2019-05-19T06:54:41.923Z,79.42
2019-05-19T06:55:44.773Z,79.42
2019-05-19T06:56:48.167Z,79.86
2019-05-19T06:57:51.501Z,80.07
2019-05-19T06:58:54.957Z,80.07
2019-05-19T06:59:57.787Z,79.53
2019-05-19T07:01:01.186Z,80.18
2019-05-19T07:02:04.004Z,80.18
2019-05-19T07:03:07.455Z,79.62
2019-05-19T07:04:10.918Z,79.32
2019-05-19T07:05:14.330Z,78.95
2019-05-19T07:06:17.160Z,79.10
2019-05-19T07:07:20.749Z,79.05
2019-05-19T07:08:23.586Z,78.61
2019-05-19T07:09:30.039Z,78.31
2019-05-19T07:10:33.432Z,77.80
2019-05-19T07:11:38.267Z,77.80
2019-05-19T07:12:41.179Z,77.54
2019-05-19T07:13:44.612Z,77.00
2019-05-19T07:14:47.449Z,77.10
2019-05-19T07:15:57.384Z,77.10
2019-05-19T07:17:00.623Z,75.73
2019-05-19T07:18:04.090Z,75.37
2019-05-19T07:19:06.895Z,75.37
2019-05-19T07:20:10.320Z,75.49
2019-05-19T07:21:13.144Z,76.21
2019-05-19T07:22:18.437Z,78.00
2019-05-19T07:23:28.194Z,78.00
2019-05-19T07:24:31.106Z,78.97
2019-05-19T07:25:33.978Z,79.23
2019-05-19T07:26:38.315Z,78.92
2019-05-19T07:27:43.929Z,79.42
2019-05-19T07:28:47.302Z,78.35
2019-05-19T07:29:54.705Z,78.35
2019-05-19T07:30:58.105Z,77.80
2019-05-19T07:32:00.928Z,77.04
2019-05-19T07:33:04.580Z,76.44
2019-05-19T07:34:07.368Z,76.15
2019-05-19T07:35:10.813Z,75.34
2019-05-19T07:36:14.077Z,74.95
2019-05-19T07:37:17.644Z,74.95
2019-05-19T07:38:20.600Z,74.33
2019-05-19T07:39:24.027Z,74.07
2019-05-19T07:40:27.097Z,73.61
2019-05-19T07:41:30.565Z,73.65
2019-05-19T07:42:36.967Z,72.64
2019-05-19T07:43:40.581Z,72.77
2019-05-19T07:44:49.003Z,73.31
2019-05-19T07:45:52.445Z,72.27
2019-05-19T07:46:55.670Z,71.65
2019-05-19T07:47:59.199Z,71.65
2019-05-19T07:49:03.649Z,71.00
2019-05-19T07:50:10.286Z,70.99
2019-05-19T07:51:15.319Z,71.12
2019-05-19T07:52:20.309Z,70.59
2019-05-19T07:53:23.176Z,70.71
2019-05-19T07:54:29.026Z,70.21
2019-05-19T07:55:32.214Z,69.79
2019-05-19T07:56:37.833Z,69.55
2019-05-19T07:57:40.652Z,68.94
2019-05-19T07:59:03.199Z,68.94
2019-05-19T08:00:06.146Z,68.19
2019-05-19T08:01:15.338Z,67.74
2019-05-19T08:02:19.824Z,68.09
2019-05-19T08:03:23.237Z,68.09
2019-05-19T08:04:26.644Z,67.58
2019-05-19T08:05:32.844Z,66.93
2019-05-19T08:06:35.690Z,68.00
2019-05-19T08:07:39.570Z,67.89
2019-05-19T08:08:43.176Z,68.08
2019-05-19T08:09:49.812Z,68.19
2019-05-19T08:10:52.684Z,68.52
2019-05-19T08:11:56.160Z,68.68
2019-05-19T08:12:59.061Z,68.96
2019-05-19T08:14:02.849Z,68.54
2019-05-19T08:15:05.726Z,69.05
2019-05-19T08:16:10.078Z,68.08
2019-05-19T08:17:13.404Z,68.62
2019-05-19T08:18:36.266Z,67.85
2019-05-19T08:19:30.584Z,67.57
2019-05-19T08:20:37.921Z,67.57
2019-05-19T08:21:40.730Z,65.72
2019-05-19T08:22:44.195Z,64.84
2019-05-19T08:23:59.757Z,64.03
2019-05-19T08:24:53.238Z,63.30
2019-05-19T08:26:01.397Z,62.53
2019-05-19T08:27:04.810Z,62.53
2019-05-19T08:28:09.114Z,62.71
2019-05-19T08:29:16.268Z,61.63
2019-05-19T08:30:19.455Z,61.93
2019-05-19T08:31:26.247Z,62.28
2019-05-19T08:32:29.077Z,61.52
2019-05-19T08:33:32.501Z,61.01
2019-05-19T08:34:38.187Z,60.48
2019-05-19T08:35:41.548Z,59.92
2019-05-19T08:36:46.385Z,59.85
2019-05-19T08:37:50.937Z,59.46
2019-05-19T08:38:56.594Z,60.01
2019-05-19T08:40:00.148Z,59.02
2019-05-19T08:41:06.005Z,59.92
2019-05-19T08:42:09.766Z,59.21
2019-05-19T08:43:12.612Z,59.21
2019-05-19T08:44:16.623Z,59.08
2019-05-19T08:45:19.431Z,57.75
2019-05-19T08:46:22.940Z,58.08
2019-05-19T08:47:25.772Z,57.60
2019-05-19T08:48:29.250Z,55.07
2019-05-19T08:49:32.178Z,55.71
2019-05-19T08:50:37.457Z,56.33
2019-05-19T08:51:40.339Z,56.33
2019-05-19T08:52:43.735Z,56.72
2019-05-19T08:53:48.797Z,56.16
2019-05-19T08:54:52.586Z,56.30
2019-05-19T08:55:55.561Z,55.93
2019-05-19T08:57:16.159Z,55.23
2019-05-19T08:58:19.004Z,55.32
2019-05-19T08:59:22.461Z,53.82
2019-05-19T09:00:25.292Z,53.87
2019-05-19T09:01:32.400Z,52.21
2019-05-19T09:02:35.301Z,52.21
2019-05-19T09:03:39.255Z,53.24
2019-05-19T09:04:42.111Z,54.03
2019-05-19T09:05:49.888Z,53.56
2019-05-19T09:06:52.825Z,52.98
2019-05-19T09:07:56.209Z,52.98
2019-05-19T09:09:01.756Z,52.55
2019-05-19T09:10:05.682Z,51.97
2019-05-19T09:11:11.735Z,51.54
2019-05-19T09:12:15.196Z,51.21
2019-05-19T09:13:19.222Z,50.57
2019-05-19T09:14:22.585Z,50.57
2019-05-19T09:15:28.272Z,50.81
2019-05-19T09:16:33.309Z,49.50
2019-05-19T09:17:36.430Z,49.96
2019-05-19T09:18:42.582Z,49.96
2019-05-19T09:19:45.607Z,50.30
2019-05-19T09:20:57.865Z,50.13
2019-05-19T09:22:02.991Z,50.23
2019-05-19T09:23:06.591Z,50.23
2019-05-19T09:24:09.849Z,49.83
2019-05-19T09:25:13.473Z,50.05
2019-05-19T09:26:26.995Z,50.20
2019-05-19T09:27:22.221Z,50.53
2019-05-19T09:28:28.080Z,49.75
2019-05-19T09:29:36.950Z,50.66
2019-05-19T09:30:39.495Z,51.36
2019-05-19T09:31:42.960Z,51.80
2019-05-19T09:32:45.855Z,52.07
2019-05-19T09:33:49.658Z,52.35
2019-05-19T09:34:52.671Z,51.74
2019-05-19T09:35:57.653Z,51.21
2019-05-19T09:37:00.758Z,51.21
2019-05-19T09:38:10.445Z,50.95
2019-05-19T09:39:13.547Z,50.34
2019-05-19T09:40:26.139Z,50.34
2019-05-19T09:41:27.760Z,50.23
2019-05-19T09:42:36.694Z,49.65
2019-05-19T09:43:41.898Z,49.73
2019-05-19T09:44:45.560Z,48.93
2019-05-19T09:45:49.944Z,49.13
2019-05-19T09:46:54.499Z,49.13
2019-05-19T09:48:16.402Z,49.09
2019-05-19T09:49:35.819Z,49.02
2019-05-19T09:50:52.015Z,47.94
2019-05-19T09:51:55.811Z,48.29
2019-05-19T09:52:58.700Z,47.64
2019-05-19T09:54:05.061Z,48.10
2019-05-19T09:55:07.979Z,48.36
2019-05-19T09:56:12.471Z,48.53
2019-05-19T09:57:15.377Z,48.95
2019-05-19T09:58:20.087Z,48.32
2019-05-19T09:59:26.052Z,47.18
2019-05-19T10:00:30.204Z,47.18
2019-05-19T10:01:37.494Z,46.20
2019-05-19T10:02:40.936Z,47.26
2019-05-19T10:03:43.813Z,47.51
2019-05-19T10:04:47.193Z,48.85
2019-05-19T10:05:50.547Z,47.83
2019-05-19T10:06:56.863Z,49.33
2019-05-19T10:07:59.783Z,49.82
2019-05-19T10:09:04.079Z,49.82
2019-05-19T10:10:07.978Z,50.67
2019-05-19T10:11:19.090Z,50.75
2019-05-19T10:12:17.487Z,50.75
2019-05-19T10:13:22.001Z,50.12
2019-05-19T10:14:24.880Z,50.12
2019-05-19T10:15:28.284Z,50.55
2019-05-19T10:16:31.256Z,50.30
2019-05-19T10:17:37.359Z,50.53
2019-05-19T10:18:40.358Z,50.18
2019-05-19T10:19:44.278Z,50.09
2019-05-19T10:20:50.315Z,50.09
2019-05-19T10:21:52.379Z,50.35
2019-05-19T10:22:55.476Z,50.35
2019-05-19T10:24:02.966Z,50.28
2019-05-19T10:25:21.016Z,50.34
2019-05-19T10:26:17.249Z,50.29
2019-05-19T10:27:21.723Z,50.29
2019-05-19T10:28:25.391Z,50.99
2019-05-19T10:29:28.265Z,51.21
2019-05-19T10:42:53.338Z,48.55
2019-05-19T10:44:05.246Z,48.12
2019-05-19T10:45:09.161Z,47.71
2019-05-19T10:46:15.092Z,48.42
2019-05-19T10:47:18.199Z,48.36
2019-05-19T10:48:22.031Z,47.77
2019-05-19T10:49:24.860Z,47.69
2019-05-19T10:50:28.315Z,47.48
2019-05-19T10:51:31.846Z,47.48
2019-05-19T10:52:35.242Z,47.48
2019-05-19T10:53:38.181Z,46.99
2019-05-19T10:54:43.274Z,47.20
2019-05-19T10:55:46.606Z,47.20
2019-05-19T10:56:51.897Z,46.31
2019-05-19T10:57:55.010Z,46.53
2019-05-19T10:58:58.597Z,46.78
2019-05-19T11:00:04.730Z,46.28
2019-05-19T11:01:10.665Z,46.74
2019-05-19T11:02:19.716Z,47.00
2019-05-19T11:03:23.317Z,47.00
2019-05-19T11:04:26.382Z,46.64
2019-05-19T11:05:31.406Z,46.93
2019-05-19T11:06:34.437Z,46.73
2019-05-19T11:07:38.665Z,46.91
2019-05-19T11:08:44.296Z,46.61
2019-05-19T11:09:52.839Z,46.71
2019-05-19T11:11:02.168Z,46.71
2019-05-19T11:12:06.752Z,47.18
2019-05-19T11:13:19.765Z,47.18
2019-05-19T11:14:25.969Z,47.59
2019-05-19T11:15:32.035Z,47.33
2019-05-19T11:16:35.627Z,47.19
2019-05-19T11:17:41.912Z,47.19
2019-05-19T11:18:47.472Z,45.95
2019-05-19T11:19:54.578Z,46.11
2019-05-19T11:20:58.168Z,46.11
2019-05-19T11:22:01.271Z,46.37
2019-05-19T11:23:06.276Z,47.02
2019-05-19T11:24:16.812Z,47.27
2019-05-19T11:25:33.006Z,47.49
2019-05-19T11:26:29.186Z,47.49
2019-05-19T11:27:32.610Z,46.90
2019-05-19T11:28:35.463Z,46.82
2019-05-19T11:29:39.377Z,46.38
2019-05-19T11:30:42.888Z,46.25
2019-05-19T11:31:46.772Z,46.81
2019-05-19T11:32:49.636Z,46.39
2019-05-19T11:34:10.953Z,45.74
2019-05-19T11:35:16.579Z,46.11
2019-05-19T11:36:20.006Z,47.37
2019-05-19T11:37:24.945Z,48.14
2019-05-19T11:38:28.462Z,48.14
2019-05-19T11:39:34.307Z,48.80
2019-05-19T11:40:37.658Z,49.87
2019-05-19T11:41:42.224Z,49.87
2019-05-19T11:42:49.258Z,52.01
2019-05-19T11:43:52.639Z,52.01
2019-05-19T11:44:59.301Z,52.34
2019-05-19T11:46:02.344Z,51.18
2019-05-19T11:47:12.811Z,50.13
2019-05-19T11:48:20.020Z,51.15
2019-05-19T11:49:25.020Z,50.04
2019-05-19T11:50:28.074Z,49.99
2019-05-19T11:51:31.929Z,49.99
2019-05-19T11:52:46.714Z,49.85
2019-05-19T11:53:50.572Z,50.80
2019-05-19T11:54:55.753Z,50.24
2019-05-19T11:56:06.616Z,50.24
2019-05-19T11:57:07.500Z,49.68
2019-05-19T11:58:13.358Z,49.99
2019-05-19T11:59:17.412Z,49.98
2019-05-19T12:00:27.548Z,49.98
2019-05-19T12:01:25.805Z,50.29
2019-05-19T12:02:29.390Z,49.92
2019-05-19T12:03:33.614Z,49.73
2019-05-19T12:04:37.444Z,49.73
2019-05-19T12:05:43.157Z,50.55
2019-05-19T12:06:52.839Z,50.55
2019-05-19T12:07:55.711Z,50.69
2019-05-19T12:08:59.001Z,51.22
2019-05-19T12:10:04.386Z,51.26
2019-05-19T12:11:08.457Z,51.89
2019-05-19T12:12:11.469Z,52.07
2019-05-19T12:13:15.415Z,52.07
2019-05-19T12:14:21.305Z,51.41
2019-05-19T12:15:28.462Z,51.60
2019-05-19T12:16:34.573Z,51.60
2019-05-19T12:17:38.491Z,52.30
2019-05-19T12:18:41.317Z,53.01
2019-05-19T12:19:46.279Z,53.19
2019-05-19T12:20:51.998Z,53.70
2019-05-19T12:21:56.301Z,53.70
2019-05-19T12:23:02.655Z,54.12
2019-05-19T12:24:06.857Z,54.64
2019-05-19T12:25:10.122Z,55.09
2019-05-19T12:26:23.355Z,56.43
2019-05-19T12:27:19.269Z,58.33
2019-05-19T12:28:25.615Z,60.18
2019-05-19T12:29:30.238Z,62.34
2019-05-19T12:30:37.306Z,62.75
2019-05-19T12:31:46.721Z,62.75
2019-05-19T12:32:59.334Z,64.66
2019-05-19T12:34:04.030Z,66.76
2019-05-19T12:35:07.530Z,67.42
2019-05-19T12:36:12.335Z,67.42
2019-05-19T12:37:15.837Z,68.42
2019-05-19T12:38:20.366Z,68.78
2019-05-19T12:39:27.444Z,69.36
2019-05-19T12:40:33.279Z,69.36
2019-05-19T12:41:36.693Z,69.53
2019-05-19T12:42:40.047Z,69.43
2019-05-19T12:43:44.337Z,69.54
2019-05-19T12:44:52.352Z,69.77
2019-05-19T12:46:16.385Z,69.77
2019-05-19T12:47:19.372Z,70.82
2019-05-19T12:48:28.888Z,70.61
2019-05-19T12:50:02.409Z,71.12
2019-05-19T12:51:07.577Z,70.57
2019-05-19T12:52:13.923Z,69.89
2019-05-19T12:53:29.237Z,71.14
2019-05-19T12:54:33.127Z,71.14
2019-05-19T12:55:36.493Z,74.11
2019-05-19T12:56:42.452Z,76.01
2019-05-19T12:57:49.156Z,78.17
2019-05-19T12:58:54.240Z,78.94
2019-05-19T13:00:02.278Z,78.94
2019-05-19T13:01:08.241Z,78.14
2019-05-19T13:02:11.629Z,76.83
2019-05-19T13:03:18.665Z,77.36
2019-05-19T13:04:24.141Z,78.77
2019-05-19T13:05:28.031Z,79.11
2019-05-19T13:06:31.297Z,78.48
2019-05-19T13:08:58.257Z,75.45
2019-05-19T13:10:02.880Z,74.89
2019-05-19T13:11:20.236Z,74.89
2019-05-19T13:12:27.455Z,74.12
2019-05-19T13:13:31.306Z,74.46
2019-05-19T13:14:39.212Z,74.65
2019-05-19T13:15:45.454Z,75.50
2019-05-19T13:16:49.986Z,75.90
2019-05-19T13:17:54.620Z,76.37
2019-05-19T13:18:59.575Z,76.47
2019-05-19T13:20:14.169Z,77.87
2019-05-19T13:21:25.991Z,77.87
2019-05-19T13:22:25.444Z,79.04
2019-05-19T13:23:31.133Z,79.33
2019-05-19T13:24:34.236Z,79.55
2019-05-19T13:25:43.142Z,79.78
2019-05-19T13:26:55.992Z,80.49
2019-05-19T13:27:52.795Z,82.43
2019-05-19T13:28:56.579Z,83.60
2019-05-19T13:30:00.244Z,84.04
2019-05-19T13:31:06.344Z,84.24
2019-05-19T13:32:09.715Z,84.41
2019-05-19T13:33:14.842Z,84.47
2019-05-19T13:34:19.400Z,83.70
2019-05-19T13:35:22.535Z,83.85
2019-05-19T13:36:28.899Z,82.79
2019-05-19T13:37:32.032Z,82.77
2019-05-19T13:38:35.498Z,83.60
2019-05-19T13:39:41.170Z,83.51
2019-05-19T13:40:47.472Z,83.45
2019-05-19T13:41:57.231Z,83.70
2019-05-19T13:43:00.817Z,83.70
2019-05-19T13:44:04.282Z,84.08
2019-05-19T13:45:07.646Z,83.92
2019-05-19T13:46:16.936Z,84.36
2019-05-19T13:47:24.038Z,83.84
2019-05-19T13:48:27.275Z,84.19
2019-05-19T13:49:30.838Z,83.56
2019-05-19T13:50:33.697Z,83.90
2019-05-19T13:51:42.818Z,83.66
2019-05-19T13:52:45.964Z,84.16
2019-05-19T13:53:54.079Z,83.88
2019-05-19T13:54:57.393Z,84.47
2019-05-19T13:56:00.767Z,84.59
2019-05-19T13:57:12.323Z,84.92
2019-05-19T13:58:15.076Z,85.50
2019-05-19T13:59:15.536Z,86.03
2019-05-19T14:00:21.201Z,85.86
2019-05-19T14:01:28.439Z,85.86
2019-05-19T14:02:30.216Z,84.70
2019-05-19T14:03:33.451Z,84.65
2019-05-19T14:04:37.065Z,84.65
2019-05-19T14:05:40.062Z,84.70
2019-05-19T14:06:43.494Z,84.20
2019-05-19T14:07:51.838Z,84.20
2019-05-19T14:08:55.221Z,83.91
2019-05-19T14:09:59.933Z,83.59
2019-05-19T14:11:03.393Z,83.59
2019-05-19T14:12:06.340Z,83.62
2019-05-19T14:13:09.842Z,83.68
2019-05-19T14:14:14.501Z,83.68
2019-05-19T14:15:17.910Z,84.16
2019-05-19T14:16:20.797Z,84.86
2019-05-19T14:17:24.344Z,84.93
2019-05-19T14:18:27.300Z,84.58
2019-05-19T14:19:30.692Z,83.83
2019-05-19T14:20:34.113Z,83.83
2019-05-19T14:21:37.662Z,83.23